sensor_id;sensor_type;location;lat;lon;timestamp;P1;durP1;ratioP1;P2;durP2;ratioP2
52041;SDS011;38052;45.944;13.624;2023-04-15T00:02:15;4.72;;;3.25;;
52041;SDS011;38052;45.944;13.624;2023-04-15T00:04:42;5.03;;;3.67;;
52041;SDS011;38052;45.944;13.624;2023-04-15T00:07:09;5.63;;;3.47;;
52041;SDS011;38052;45.944;13.624;2023-04-15T00:09:35;4.75;;;2.92;;
52041;SDS011;38052;45.944;13.624;2023-04-15T00:12:01;5.57;;;2.90;;
52041;SDS011;38052;45.944;13.624;2023-04-15T00:14:27;3.90;;;2.40;;
52041;SDS011;38052;45.944;13.624;2023-04-15T00:16:54;4.57;;;2.90;;
52041;SDS011;38052;45.944;13.624;2023-04-15T00:19:21;6.97;;;3.13;;
52041;SDS011;38052;45.944;13.624;2023-04-15T00:21:48;4.05;;;2.83;;
52041;SDS011;38052;45.944;13.624;2023-04-15T00:24:14;4.13;;;2.40;;
52041;SDS011;38052;45.944;13.624;2023-04-15T00:26:40;5.00;;;3.95;;
52041;SDS011;38052;45.944;13.624;2023-04-15T00:29:06;4.90;;;2.88;;
52041;SDS011;38052;45.944;13.624;2023-04-15T00:31:33;3.72;;;2.42;;
52041;SDS011;38052;45.944;13.624;2023-04-15T00:33:59;3.50;;;2.22;;
52041;SDS011;38052;45.944;13.624;2023-04-15T00:36:26;6.07;;;2.97;;
52041;SDS011;38052;45.944;13.624;2023-04-15T00:38:52;4.57;;;3.42;;
52041;SDS011;38052;45.944;13.624;2023-04-15T00:41:20;8.05;;;4.13;;
52041;SDS011;38052;45.944;13.624;2023-04-15T00:43:47;4.90;;;3.20;;
52041;SDS011;38052;45.944;13.624;2023-04-15T00:46:13;6.45;;;4.10;;
52041;SDS011;38052;45.944;13.624;2023-04-15T00:48:41;5.80;;;4.07;;
52041;SDS011;38052;45.944;13.624;2023-04-15T00:51:07;4.80;;;3.47;;
52041;SDS011;38052;45.944;13.624;2023-04-15T00:53:34;7.68;;;4.47;;
52041;SDS011;38052;45.944;13.624;2023-04-15T00:56:01;4.28;;;3.67;;
52041;SDS011;38052;45.944;13.624;2023-04-15T00:58:27;4.97;;;3.35;;
52041;SDS011;38052;45.944;13.624;2023-04-15T01:00:54;5.25;;;3.80;;
52041;SDS011;38052;45.944;13.624;2023-04-15T01:03:21;6.28;;;3.92;;
52041;SDS011;38052;45.944;13.624;2023-04-15T01:05:47;6.35;;;3.88;;
52041;SDS011;38052;45.944;13.624;2023-04-15T01:08:14;5.25;;;3.60;;
52041;SDS011;38052;45.944;13.624;2023-04-15T01:10:41;7.63;;;3.45;;
52041;SDS011;38052;45.944;13.624;2023-04-15T01:13:08;5.75;;;2.80;;
52041;SDS011;38052;45.944;13.624;2023-04-15T01:15:34;3.92;;;2.97;;
52041;SDS011;38052;45.944;13.624;2023-04-15T01:18:01;4.85;;;3.15;;
52041;SDS011;38052;45.944;13.624;2023-04-15T01:20:28;4.93;;;3.05;;
52041;SDS011;38052;45.944;13.624;2023-04-15T01:22:55;6.15;;;3.30;;
52041;SDS011;38052;45.944;13.624;2023-04-15T01:25:31;4.72;;;3.85;;
52041;SDS011;38052;45.944;13.624;2023-04-15T01:27:59;5.57;;;3.60;;
52041;SDS011;38052;45.944;13.624;2023-04-15T01:30:26;6.82;;;4.13;;
52041;SDS011;38052;45.944;13.624;2023-04-15T01:32:52;5.15;;;3.65;;
52041;SDS011;38052;45.944;13.624;2023-04-15T01:35:19;5.15;;;4.57;;
52041;SDS011;38052;45.944;13.624;2023-04-15T01:37:45;6.38;;;4.60;;
52041;SDS011;38052;45.944;13.624;2023-04-15T01:40:11;7.38;;;4.57;;
52041;SDS011;38052;45.944;13.624;2023-04-15T01:42:38;5.80;;;3.97;;
52041;SDS011;38052;45.944;13.624;2023-04-15T01:45:04;7.30;;;3.72;;
52041;SDS011;38052;45.944;13.624;2023-04-15T01:47:31;5.88;;;4.05;;
52041;SDS011;38052;45.944;13.624;2023-04-15T01:49:57;4.82;;;3.80;;
52041;SDS011;38052;45.944;13.624;2023-04-15T01:52:24;7.15;;;3.17;;
52041;SDS011;38052;45.944;13.624;2023-04-15T01:54:50;7.47;;;2.67;;
52041;SDS011;38052;45.944;13.624;2023-04-15T01:57:17;5.40;;;2.83;;
52041;SDS011;38052;45.944;13.624;2023-04-15T01:59:43;5.25;;;2.67;;
52041;SDS011;38052;45.944;13.624;2023-04-15T02:02:10;5.22;;;2.47;;
52041;SDS011;38052;45.944;13.624;2023-04-15T02:04:36;5.13;;;2.78;;
52041;SDS011;38052;45.944;13.624;2023-04-15T02:07:02;3.33;;;2.00;;
52041;SDS011;38052;45.944;13.624;2023-04-15T02:12:14;3.95;;;2.50;;
52041;SDS011;38052;45.944;13.624;2023-04-15T02:14:40;5.15;;;2.67;;
52041;SDS011;38052;45.944;13.624;2023-04-15T02:17:06;4.82;;;2.60;;
52041;SDS011;38052;45.944;13.624;2023-04-15T02:19:33;3.38;;;1.75;;
52041;SDS011;38052;45.944;13.624;2023-04-15T02:21:59;3.58;;;2.28;;
52041;SDS011;38052;45.944;13.624;2023-04-15T02:24:26;4.35;;;2.42;;
52041;SDS011;38052;45.944;13.624;2023-04-15T02:26:53;4.30;;;2.88;;
52041;SDS011;38052;45.944;13.624;2023-04-15T02:29:19;3.33;;;2.35;;
52041;SDS011;38052;45.944;13.624;2023-04-15T02:31:46;5.15;;;2.10;;
52041;SDS011;38052;45.944;13.624;2023-04-15T02:34:12;5.43;;;2.35;;
52041;SDS011;38052;45.944;13.624;2023-04-15T02:36:39;6.38;;;2.53;;
52041;SDS011;38052;45.944;13.624;2023-04-15T02:39:05;3.33;;;2.20;;
52041;SDS011;38052;45.944;13.624;2023-04-15T02:41:32;4.90;;;2.40;;
52041;SDS011;38052;45.944;13.624;2023-04-15T02:43:59;5.35;;;2.53;;
52041;SDS011;38052;45.944;13.624;2023-04-15T02:46:26;3.92;;;2.33;;
52041;SDS011;38052;45.944;13.624;2023-04-15T02:48:52;7.57;;;2.13;;
52041;SDS011;38052;45.944;13.624;2023-04-15T02:51:19;3.10;;;2.17;;
52041;SDS011;38052;45.944;13.624;2023-04-15T02:53:48;4.70;;;1.90;;
52041;SDS011;38052;45.944;13.624;2023-04-15T02:56:14;2.97;;;1.50;;
52041;SDS011;38052;45.944;13.624;2023-04-15T02:58:42;2.75;;;1.85;;
52041;SDS011;38052;45.944;13.624;2023-04-15T03:01:08;4.35;;;2.08;;
52041;SDS011;38052;45.944;13.624;2023-04-15T03:03:35;3.22;;;1.83;;
52041;SDS011;38052;45.944;13.624;2023-04-15T03:06:01;4.57;;;2.17;;
52041;SDS011;38052;45.944;13.624;2023-04-15T03:08:27;3.85;;;1.75;;
52041;SDS011;38052;45.944;13.624;2023-04-15T03:10:53;3.95;;;2.13;;
52041;SDS011;38052;45.944;13.624;2023-04-15T03:13:20;2.75;;;1.70;;
52041;SDS011;38052;45.944;13.624;2023-04-15T03:15:46;3.00;;;1.75;;
52041;SDS011;38052;45.944;13.624;2023-04-15T03:18:12;2.45;;;1.20;;
52041;SDS011;38052;45.944;13.624;2023-04-15T03:20:38;1.48;;;1.00;;
52041;SDS011;38052;45.944;13.624;2023-04-15T03:23:05;2.88;;;1.17;;
52041;SDS011;38052;45.944;13.624;2023-04-15T03:25:31;3.53;;;1.08;;
52041;SDS011;38052;45.944;13.624;2023-04-15T03:27:58;3.03;;;1.42;;
52041;SDS011;38052;45.944;13.624;2023-04-15T03:30:25;0.80;;;0.60;;
52041;SDS011;38052;45.944;13.624;2023-04-15T03:32:51;2.65;;;1.30;;
52041;SDS011;38052;45.944;13.624;2023-04-15T03:35:17;1.83;;;1.10;;
52041;SDS011;38052;45.944;13.624;2023-04-15T03:37:44;3.53;;;1.48;;
52041;SDS011;38052;45.944;13.624;2023-04-15T03:40:11;2.67;;;0.93;;
52041;SDS011;38052;45.944;13.624;2023-04-15T03:42:37;2.00;;;1.00;;
52041;SDS011;38052;45.944;13.624;2023-04-15T03:45:04;1.98;;;0.80;;
52041;SDS011;38052;45.944;13.624;2023-04-15T03:47:30;1.65;;;0.68;;
52041;SDS011;38052;45.944;13.624;2023-04-15T03:49:57;4.20;;;1.63;;
52041;SDS011;38052;45.944;13.624;2023-04-15T03:52:23;3.25;;;1.40;;
52041;SDS011;38052;45.944;13.624;2023-04-15T03:54:50;1.52;;;1.23;;
52041;SDS011;38052;45.944;13.624;2023-04-15T03:57:16;1.58;;;1.00;;
52041;SDS011;38052;45.944;13.624;2023-04-15T03:59:42;2.35;;;0.93;;
52041;SDS011;38052;45.944;13.624;2023-04-15T04:02:08;2.38;;;1.17;;
52041;SDS011;38052;45.944;13.624;2023-04-15T04:04:35;2.42;;;0.93;;
52041;SDS011;38052;45.944;13.624;2023-04-15T04:07:01;1.45;;;0.88;;
52041;SDS011;38052;45.944;13.624;2023-04-15T04:09:28;4.10;;;0.85;;
52041;SDS011;38052;45.944;13.624;2023-04-15T04:11:54;1.98;;;1.05;;
52041;SDS011;38052;45.944;13.624;2023-04-15T04:14:21;1.90;;;1.10;;
52041;SDS011;38052;45.944;13.624;2023-04-15T04:16:53;1.35;;;0.80;;
52041;SDS011;38052;45.944;13.624;2023-04-15T04:19:19;1.58;;;0.75;;
52041;SDS011;38052;45.944;13.624;2023-04-15T04:21:45;3.88;;;0.88;;
52041;SDS011;38052;45.944;13.624;2023-04-15T04:24:11;1.48;;;0.80;;
52041;SDS011;38052;45.944;13.624;2023-04-15T04:26:38;3.10;;;1.23;;
52041;SDS011;38052;45.944;13.624;2023-04-15T04:29:04;2.42;;;0.88;;
52041;SDS011;38052;45.944;13.624;2023-04-15T04:31:31;1.85;;;1.02;;
52041;SDS011;38052;45.944;13.624;2023-04-15T04:33:57;1.83;;;0.68;;
52041;SDS011;38052;45.944;13.624;2023-04-15T04:36:23;1.70;;;0.55;;
52041;SDS011;38052;45.944;13.624;2023-04-15T04:38:50;1.48;;;0.90;;
52041;SDS011;38052;45.944;13.624;2023-04-15T04:41:16;4.05;;;1.10;;
52041;SDS011;38052;45.944;13.624;2023-04-15T04:43:43;2.83;;;0.80;;
52041;SDS011;38052;45.944;13.624;2023-04-15T04:46:09;2.47;;;1.48;;
52041;SDS011;38052;45.944;13.624;2023-04-15T04:48:36;3.75;;;1.33;;
52041;SDS011;38052;45.944;13.624;2023-04-15T04:51:03;3.03;;;1.58;;
52041;SDS011;38052;45.944;13.624;2023-04-15T04:53:29;1.90;;;0.93;;
52041;SDS011;38052;45.944;13.624;2023-04-15T04:55:56;3.50;;;1.08;;
52041;SDS011;38052;45.944;13.624;2023-04-15T04:58:22;2.38;;;1.40;;
52041;SDS011;38052;45.944;13.624;2023-04-15T05:00:48;3.88;;;2.30;;
52041;SDS011;38052;45.944;13.624;2023-04-15T05:03:14;3.33;;;1.88;;
52041;SDS011;38052;45.944;13.624;2023-04-15T05:05:41;4.43;;;1.85;;
52041;SDS011;38052;45.944;13.624;2023-04-15T05:08:07;2.53;;;1.88;;
52041;SDS011;38052;45.944;13.624;2023-04-15T05:10:33;2.72;;;1.83;;
52041;SDS011;38052;45.944;13.624;2023-04-15T05:13:00;2.58;;;1.58;;
52041;SDS011;38052;45.944;13.624;2023-04-15T05:15:27;3.03;;;1.42;;
52041;SDS011;38052;45.944;13.624;2023-04-15T05:17:53;3.70;;;1.98;;
52041;SDS011;38052;45.944;13.624;2023-04-15T05:20:20;3.33;;;1.75;;
52041;SDS011;38052;45.944;13.624;2023-04-15T05:22:46;3.20;;;1.90;;
52041;SDS011;38052;45.944;13.624;2023-04-15T05:25:12;2.72;;;2.08;;
52041;SDS011;38052;45.944;13.624;2023-04-15T05:27:39;3.63;;;1.70;;
52041;SDS011;38052;45.944;13.624;2023-04-15T05:30:05;3.72;;;1.90;;
52041;SDS011;38052;45.944;13.624;2023-04-15T05:32:32;3.70;;;1.40;;
52041;SDS011;38052;45.944;13.624;2023-04-15T05:34:58;3.05;;;1.70;;
52041;SDS011;38052;45.944;13.624;2023-04-15T05:37:24;2.58;;;1.38;;
52041;SDS011;38052;45.944;13.624;2023-04-15T05:39:51;2.55;;;0.88;;
52041;SDS011;38052;45.944;13.624;2023-04-15T05:42:17;2.67;;;1.60;;
52041;SDS011;38052;45.944;13.624;2023-04-15T05:44:43;3.45;;;1.65;;
52041;SDS011;38052;45.944;13.624;2023-04-15T05:47:09;2.58;;;1.50;;
52041;SDS011;38052;45.944;13.624;2023-04-15T05:49:36;1.92;;;1.10;;
52041;SDS011;38052;45.944;13.624;2023-04-15T05:52:02;2.67;;;0.93;;
52041;SDS011;38052;45.944;13.624;2023-04-15T05:54:28;2.55;;;1.73;;
52041;SDS011;38052;45.944;13.624;2023-04-15T05:56:54;2.95;;;1.17;;
52041;SDS011;38052;45.944;13.624;2023-04-15T05:59:21;2.30;;;0.90;;
52041;SDS011;38052;45.944;13.624;2023-04-15T06:01:48;2.60;;;1.50;;
52041;SDS011;38052;45.944;13.624;2023-04-15T06:04:16;3.83;;;2.33;;
52041;SDS011;38052;45.944;13.624;2023-04-15T06:06:42;4.10;;;2.53;;
52041;SDS011;38052;45.944;13.624;2023-04-15T06:09:08;4.13;;;2.80;;
52041;SDS011;38052;45.944;13.624;2023-04-15T06:11:35;4.40;;;3.30;;
52041;SDS011;38052;45.944;13.624;2023-04-15T06:14:01;4.38;;;2.85;;
52041;SDS011;38052;45.944;13.624;2023-04-15T06:16:28;3.45;;;2.22;;
52041;SDS011;38052;45.944;13.624;2023-04-15T06:18:55;2.83;;;1.92;;
52041;SDS011;38052;45.944;13.624;2023-04-15T06:21:21;4.32;;;2.72;;
52041;SDS011;38052;45.944;13.624;2023-04-15T06:23:48;2.42;;;1.42;;
52041;SDS011;38052;45.944;13.624;2023-04-15T06:26:14;8.65;;;2.10;;
52041;SDS011;38052;45.944;13.624;2023-04-15T06:28:40;7.25;;;2.78;;
52041;SDS011;38052;45.944;13.624;2023-04-15T06:31:07;4.05;;;2.30;;
52041;SDS011;38052;45.944;13.624;2023-04-15T06:33:34;4.15;;;2.13;;
52041;SDS011;38052;45.944;13.624;2023-04-15T06:36:00;4.50;;;2.28;;
52041;SDS011;38052;45.944;13.624;2023-04-15T06:38:27;5.15;;;2.17;;
52041;SDS011;38052;45.944;13.624;2023-04-15T06:40:53;4.05;;;2.08;;
52041;SDS011;38052;45.944;13.624;2023-04-15T06:43:20;3.72;;;2.72;;
52041;SDS011;38052;45.944;13.624;2023-04-15T06:45:47;2.05;;;1.45;;
52041;SDS011;38052;45.944;13.624;2023-04-15T06:48:13;2.83;;;1.52;;
52041;SDS011;38052;45.944;13.624;2023-04-15T06:50:40;2.80;;;1.48;;
52041;SDS011;38052;45.944;13.624;2023-04-15T06:53:06;3.03;;;1.40;;
52041;SDS011;38052;45.944;13.624;2023-04-15T06:55:33;2.67;;;1.70;;
52041;SDS011;38052;45.944;13.624;2023-04-15T06:57:59;2.58;;;1.38;;
52041;SDS011;38052;45.944;13.624;2023-04-15T07:00:26;2.03;;;1.17;;
52041;SDS011;38052;45.944;13.624;2023-04-15T07:02:52;3.42;;;1.50;;
52041;SDS011;38052;45.944;13.624;2023-04-15T07:05:19;2.95;;;1.20;;
52041;SDS011;38052;45.944;13.624;2023-04-15T07:07:45;3.88;;;1.30;;
52041;SDS011;38052;45.944;13.624;2023-04-15T07:10:12;3.28;;;1.17;;
52041;SDS011;38052;45.944;13.624;2023-04-15T07:12:39;1.65;;;0.60;;
52041;SDS011;38052;45.944;13.624;2023-04-15T07:15:06;1.60;;;0.38;;
52041;SDS011;38052;45.944;13.624;2023-04-15T07:17:33;1.88;;;0.80;;
52041;SDS011;38052;45.944;13.624;2023-04-15T07:19:59;3.97;;;1.70;;
52041;SDS011;38052;45.944;13.624;2023-04-15T07:22:26;3.38;;;1.73;;
52041;SDS011;38052;45.944;13.624;2023-04-15T07:24:52;2.72;;;1.38;;
52041;SDS011;38052;45.944;13.624;2023-04-15T07:27:18;3.25;;;1.73;;
52041;SDS011;38052;45.944;13.624;2023-04-15T07:29:44;3.80;;;2.30;;
52041;SDS011;38052;45.944;13.624;2023-04-15T07:32:11;3.22;;;1.67;;
52041;SDS011;38052;45.944;13.624;2023-04-15T07:34:38;3.55;;;2.53;;
52041;SDS011;38052;45.944;13.624;2023-04-15T07:37:05;6.43;;;2.30;;
52041;SDS011;38052;45.944;13.624;2023-04-15T07:39:31;3.92;;;2.30;;
52041;SDS011;38052;45.944;13.624;2023-04-15T07:41:58;3.58;;;1.92;;
52041;SDS011;38052;45.944;13.624;2023-04-15T07:44:25;3.83;;;2.42;;
52041;SDS011;38052;45.944;13.624;2023-04-15T07:46:51;3.70;;;2.08;;
52041;SDS011;38052;45.944;13.624;2023-04-15T07:49:17;6.03;;;2.75;;
52041;SDS011;38052;45.944;13.624;2023-04-15T07:51:45;3.35;;;2.33;;
52041;SDS011;38052;45.944;13.624;2023-04-15T07:54:12;3.58;;;2.25;;
52041;SDS011;38052;45.944;13.624;2023-04-15T07:56:38;6.10;;;2.75;;
52041;SDS011;38052;45.944;13.624;2023-04-15T07:59:05;4.40;;;3.50;;
52041;SDS011;38052;45.944;13.624;2023-04-15T08:01:31;5.57;;;3.50;;
52041;SDS011;38052;45.944;13.624;2023-04-15T08:03:58;7.32;;;3.40;;
52041;SDS011;38052;45.944;13.624;2023-04-15T08:06:24;5.70;;;3.45;;
52041;SDS011;38052;45.944;13.624;2023-04-15T08:08:51;3.92;;;2.45;;
52041;SDS011;38052;45.944;13.624;2023-04-15T08:11:18;6.32;;;4.00;;
52041;SDS011;38052;45.944;13.624;2023-04-15T08:13:45;4.78;;;2.78;;
52041;SDS011;38052;45.944;13.624;2023-04-15T08:16:21;6.13;;;3.65;;
52041;SDS011;38052;45.944;13.624;2023-04-15T08:18:48;5.15;;;3.10;;
52041;SDS011;38052;45.944;13.624;2023-04-15T08:21:16;3.78;;;1.92;;
52041;SDS011;38052;45.944;13.624;2023-04-15T08:23:43;4.55;;;2.05;;
52041;SDS011;38052;45.944;13.624;2023-04-15T08:26:09;4.93;;;2.33;;
52041;SDS011;38052;45.944;13.624;2023-04-15T08:28:37;5.25;;;1.75;;
52041;SDS011;38052;45.944;13.624;2023-04-15T08:31:03;5.05;;;1.95;;
52041;SDS011;38052;45.944;13.624;2023-04-15T08:33:30;3.33;;;1.60;;
52041;SDS011;38052;45.944;13.624;2023-04-15T08:35:57;6.88;;;2.13;;
52041;SDS011;38052;45.944;13.624;2023-04-15T08:38:23;6.18;;;1.80;;
52041;SDS011;38052;45.944;13.624;2023-04-15T08:40:50;3.83;;;1.75;;
52041;SDS011;38052;45.944;13.624;2023-04-15T08:43:23;3.53;;;1.33;;
52041;SDS011;38052;45.944;13.624;2023-04-15T08:45:51;6.55;;;1.67;;
52041;SDS011;38052;45.944;13.624;2023-04-15T08:48:17;4.57;;;1.10;;
52041;SDS011;38052;45.944;13.624;2023-04-15T08:50:44;4.68;;;1.58;;
52041;SDS011;38052;45.944;13.624;2023-04-15T08:53:11;8.55;;;3.53;;
52041;SDS011;38052;45.944;13.624;2023-04-15T08:55:42;3.15;;;0.77;;
52041;SDS011;38052;45.944;13.624;2023-04-15T09:00:36;6.63;;;0.88;;
52041;SDS011;38052;45.944;13.624;2023-04-15T09:03:05;1.58;;;0.85;;
52041;SDS011;38052;45.944;13.624;2023-04-15T09:05:32;3.85;;;1.88;;
52041;SDS011;38052;45.944;13.624;2023-04-15T09:07:59;4.00;;;1.77;;
52041;SDS011;38052;45.944;13.624;2023-04-15T09:10:25;4.18;;;1.60;;
52041;SDS011;38052;45.944;13.624;2023-04-15T09:12:51;2.67;;;1.05;;
52041;SDS011;38052;45.944;13.624;2023-04-15T09:15:18;4.47;;;1.45;;
52041;SDS011;38052;45.944;13.624;2023-04-15T09:17:45;10.20;;;3.92;;
52041;SDS011;38052;45.944;13.624;2023-04-15T09:22:41;5.10;;;2.03;;
52041;SDS011;38052;45.944;13.624;2023-04-15T09:27:47;5.63;;;1.15;;
52041;SDS011;38052;45.944;13.624;2023-04-15T09:30:13;3.25;;;0.98;;
52041;SDS011;38052;45.944;13.624;2023-04-15T09:32:53;3.20;;;1.50;;
52041;SDS011;38052;45.944;13.624;2023-04-15T09:35:20;2.88;;;0.88;;
52041;SDS011;38052;45.944;13.624;2023-04-15T09:37:47;3.72;;;0.80;;
52041;SDS011;38052;45.944;13.624;2023-04-15T09:40:14;2.05;;;0.80;;
52041;SDS011;38052;45.944;13.624;2023-04-15T09:42:55;4.05;;;0.90;;
52041;SDS011;38052;45.944;13.624;2023-04-15T09:45:22;3.30;;;0.55;;
52041;SDS011;38052;45.944;13.624;2023-04-15T09:47:49;3.58;;;1.08;;
52041;SDS011;38052;45.944;13.624;2023-04-15T09:50:18;3.78;;;0.85;;
52041;SDS011;38052;45.944;13.624;2023-04-15T09:52:45;3.50;;;0.90;;
52041;SDS011;38052;45.944;13.624;2023-04-15T09:55:12;3.28;;;1.00;;
52041;SDS011;38052;45.944;13.624;2023-04-15T09:57:39;4.75;;;1.02;;
52041;SDS011;38052;45.944;13.624;2023-04-15T10:00:06;3.83;;;0.95;;
52041;SDS011;38052;45.944;13.624;2023-04-15T10:02:35;1.63;;;0.38;;
52041;SDS011;38052;45.944;13.624;2023-04-15T10:05:02;4.03;;;1.05;;
52041;SDS011;38052;45.944;13.624;2023-04-15T10:07:28;2.95;;;0.80;;
52041;SDS011;38052;45.944;13.624;2023-04-15T10:09:55;5.50;;;0.82;;
52041;SDS011;38052;45.944;13.624;2023-04-15T10:12:21;6.88;;;0.80;;
52041;SDS011;38052;45.944;13.624;2023-04-15T10:14:52;6.15;;;0.75;;
52041;SDS011;38052;45.944;13.624;2023-04-15T10:17:20;3.47;;;0.73;;
52041;SDS011;38052;45.944;13.624;2023-04-15T10:19:47;5.82;;;2.03;;
52041;SDS011;38052;45.944;13.624;2023-04-15T10:22:14;3.88;;;1.08;;
52041;SDS011;38052;45.944;13.624;2023-04-15T10:24:41;3.20;;;1.20;;
52041;SDS011;38052;45.944;13.624;2023-04-15T10:27:09;3.05;;;0.98;;
52041;SDS011;38052;45.944;13.624;2023-04-15T10:29:35;5.38;;;1.83;;
52041;SDS011;38052;45.944;13.624;2023-04-15T10:32:02;9.60;;;1.45;;
52041;SDS011;38052;45.944;13.624;2023-04-15T10:34:29;6.38;;;3.40;;
52041;SDS011;38052;45.944;13.624;2023-04-15T10:37:02;5.63;;;1.00;;
52041;SDS011;38052;45.944;13.624;2023-04-15T10:42:15;3.80;;;0.50;;
52041;SDS011;38052;45.944;13.624;2023-04-15T10:44:42;2.25;;;0.40;;
52041;SDS011;38052;45.944;13.624;2023-04-15T10:47:12;1.25;;;0.35;;
52041;SDS011;38052;45.944;13.624;2023-04-15T10:49:43;2.03;;;0.20;;
52041;SDS011;38052;45.944;13.624;2023-04-15T10:52:10;4.38;;;0.52;;
52041;SDS011;38052;45.944;13.624;2023-04-15T10:54:36;0.95;;;0.20;;
52041;SDS011;38052;45.944;13.624;2023-04-15T10:59:36;2.03;;;0.38;;
52041;SDS011;38052;45.944;13.624;2023-04-15T11:07:53;1.20;;;0.10;;
52041;SDS011;38052;45.944;13.624;2023-04-15T11:12:39;0.93;;;0.05;;
52041;SDS011;38052;45.944;13.624;2023-04-15T11:17:51;0.75;;;0.15;;
52041;SDS011;38052;45.944;13.624;2023-04-15T11:20:18;1.25;;;0.35;;
52041;SDS011;38052;45.944;13.624;2023-04-15T11:22:51;1.33;;;0.30;;
52041;SDS011;38052;45.944;13.624;2023-04-15T11:25:35;0.20;;;0.17;;
52041;SDS011;38052;45.944;13.624;2023-04-15T11:28:02;0.52;;;0.20;;
52041;SDS011;38052;45.944;13.624;2023-04-15T11:30:30;0.85;;;0.20;;
52041;SDS011;38052;45.944;13.624;2023-04-15T11:32:57;1.35;;;0.15;;
52041;SDS011;38052;45.944;13.624;2023-04-15T11:35:24;0.30;;;0.10;;
52041;SDS011;38052;45.944;13.624;2023-04-15T11:37:50;0.68;;;0.10;;
52041;SDS011;38052;45.944;13.624;2023-04-15T11:40:21;0.13;;;0.03;;
52041;SDS011;38052;45.944;13.624;2023-04-15T11:45:32;0.77;;;0.20;;
52041;SDS011;38052;45.944;13.624;2023-04-15T11:48:08;0.55;;;0.13;;
52041;SDS011;38052;45.944;13.624;2023-04-15T11:50:34;1.88;;;0.20;;
52041;SDS011;38052;45.944;13.624;2023-04-15T11:53:01;3.30;;;0.63;;
52041;SDS011;38052;45.944;13.624;2023-04-15T11:55:29;0.75;;;0.30;;
52041;SDS011;38052;45.944;13.624;2023-04-15T11:58:11;0.85;;;0.30;;
52041;SDS011;38052;45.944;13.624;2023-04-15T12:00:38;1.88;;;0.28;;
52041;SDS011;38052;45.944;13.624;2023-04-15T12:03:39;1.60;;;0.65;;
52041;SDS011;38052;45.944;13.624;2023-04-15T12:06:17;2.50;;;0.50;;
52041;SDS011;38052;45.944;13.624;2023-04-15T12:08:49;1.17;;;0.30;;
52041;SDS011;38052;45.944;13.624;2023-04-15T12:11:16;3.97;;;0.68;;
52041;SDS011;38052;45.944;13.624;2023-04-15T12:13:47;5.20;;;0.60;;
52041;SDS011;38052;45.944;13.624;2023-04-15T12:16:17;6.95;;;0.68;;
52041;SDS011;38052;45.944;13.624;2023-04-15T12:18:50;2.45;;;0.50;;
52041;SDS011;38052;45.944;13.624;2023-04-15T12:21:19;1.67;;;0.40;;
52041;SDS011;38052;45.944;13.624;2023-04-15T12:23:49;0.77;;;0.30;;
52041;SDS011;38052;45.944;13.624;2023-04-15T12:26:16;3.22;;;0.52;;
52041;SDS011;38052;45.944;13.624;2023-04-15T12:28:43;0.68;;;0.30;;
52041;SDS011;38052;45.944;13.624;2023-04-15T12:31:10;1.42;;;0.38;;
52041;SDS011;38052;45.944;13.624;2023-04-15T12:33:37;2.63;;;0.30;;
52041;SDS011;38052;45.944;13.624;2023-04-15T12:36:04;1.30;;;0.30;;
52041;SDS011;38052;45.944;13.624;2023-04-15T12:38:31;1.83;;;0.35;;
52041;SDS011;38052;45.944;13.624;2023-04-15T12:40:57;1.88;;;0.73;;
52041;SDS011;38052;45.944;13.624;2023-04-15T12:43:24;2.67;;;0.70;;
52041;SDS011;38052;45.944;13.624;2023-04-15T12:45:50;3.33;;;1.58;;
52041;SDS011;38052;45.944;13.624;2023-04-15T12:48:17;2.08;;;0.25;;
52041;SDS011;38052;45.944;13.624;2023-04-15T12:50:43;0.60;;;0.10;;
52041;SDS011;38052;45.944;13.624;2023-04-15T12:53:09;1.73;;;0.20;;
52041;SDS011;38052;45.944;13.624;2023-04-15T12:55:36;2.83;;;0.30;;
52041;SDS011;38052;45.944;13.624;2023-04-15T12:58:03;1.73;;;0.10;;
52041;SDS011;38052;45.944;13.624;2023-04-15T13:00:29;1.10;;;0.20;;
52041;SDS011;38052;45.944;13.624;2023-04-15T13:02:58;1.33;;;0.28;;
52041;SDS011;38052;45.944;13.624;2023-04-15T13:05:25;2.25;;;0.88;;
52041;SDS011;38052;45.944;13.624;2023-04-15T13:07:51;1.88;;;0.30;;
52041;SDS011;38052;45.944;13.624;2023-04-15T13:10:17;1.20;;;0.22;;
52041;SDS011;38052;45.944;13.624;2023-04-15T13:12:44;2.13;;;0.30;;
52041;SDS011;38052;45.944;13.624;2023-04-15T13:15:14;1.77;;;0.30;;
52041;SDS011;38052;45.944;13.624;2023-04-15T13:17:43;1.35;;;0.20;;
52041;SDS011;38052;45.944;13.624;2023-04-15T13:20:10;1.88;;;0.43;;
52041;SDS011;38052;45.944;13.624;2023-04-15T13:22:36;6.38;;;0.70;;
52041;SDS011;38052;45.944;13.624;2023-04-15T13:25:03;1.38;;;0.25;;
52041;SDS011;38052;45.944;13.624;2023-04-15T13:27:29;1.15;;;0.30;;
52041;SDS011;38052;45.944;13.624;2023-04-15T13:29:56;2.78;;;0.55;;
52041;SDS011;38052;45.944;13.624;2023-04-15T13:32:23;1.25;;;0.28;;
52041;SDS011;38052;45.944;13.624;2023-04-15T13:34:49;2.50;;;0.40;;
52041;SDS011;38052;45.944;13.624;2023-04-15T13:37:15;3.15;;;0.20;;
52041;SDS011;38052;45.944;13.624;2023-04-15T13:39:42;1.13;;;0.20;;
52041;SDS011;38052;45.944;13.624;2023-04-15T13:42:08;3.15;;;0.20;;
52041;SDS011;38052;45.944;13.624;2023-04-15T13:44:34;2.33;;;0.22;;
52041;SDS011;38052;45.944;13.624;2023-04-15T13:47:01;4.07;;;0.82;;
52041;SDS011;38052;45.944;13.624;2023-04-15T13:49:27;5.13;;;0.30;;
52041;SDS011;38052;45.944;13.624;2023-04-15T13:51:54;1.05;;;0.28;;
52041;SDS011;38052;45.944;13.624;2023-04-15T13:54:21;2.17;;;0.45;;
52041;SDS011;38052;45.944;13.624;2023-04-15T13:56:47;7.85;;;1.20;;
52041;SDS011;38052;45.944;13.624;2023-04-15T13:59:13;4.78;;;0.50;;
52041;SDS011;38052;45.944;13.624;2023-04-15T14:01:39;5.00;;;0.50;;
52041;SDS011;38052;45.944;13.624;2023-04-15T14:04:05;5.45;;;0.50;;
52041;SDS011;38052;45.944;13.624;2023-04-15T14:06:32;3.33;;;0.52;;
52041;SDS011;38052;45.944;13.624;2023-04-15T14:08:58;2.88;;;0.50;;
52041;SDS011;38052;45.944;13.624;2023-04-15T14:11:25;2.40;;;0.57;;
52041;SDS011;38052;45.944;13.624;2023-04-15T14:13:51;1.45;;;0.20;;
52041;SDS011;38052;45.944;13.624;2023-04-15T14:16:17;4.88;;;0.63;;
52041;SDS011;38052;45.944;13.624;2023-04-15T14:18:44;4.97;;;0.30;;
52041;SDS011;38052;45.944;13.624;2023-04-15T14:21:10;3.83;;;1.10;;
52041;SDS011;38052;45.944;13.624;2023-04-15T14:23:36;3.53;;;0.30;;
52041;SDS011;38052;45.944;13.624;2023-04-15T14:26:03;3.92;;;0.55;;
52041;SDS011;38052;45.944;13.624;2023-04-15T14:28:29;2.15;;;0.40;;
52041;SDS011;38052;45.944;13.624;2023-04-15T14:30:56;3.40;;;0.30;;
52041;SDS011;38052;45.944;13.624;2023-04-15T14:33:22;3.45;;;0.30;;
52041;SDS011;38052;45.944;13.624;2023-04-15T14:35:49;4.97;;;0.60;;
52041;SDS011;38052;45.944;13.624;2023-04-15T14:38:15;4.78;;;0.40;;
52041;SDS011;38052;45.944;13.624;2023-04-15T14:40:42;5.38;;;0.60;;
52041;SDS011;38052;45.944;13.624;2023-04-15T14:43:09;4.50;;;0.50;;
52041;SDS011;38052;45.944;13.624;2023-04-15T14:45:36;3.50;;;0.50;;
52041;SDS011;38052;45.944;13.624;2023-04-15T14:48:02;2.63;;;0.63;;
52041;SDS011;38052;45.944;13.624;2023-04-15T14:50:30;2.50;;;0.75;;
52041;SDS011;38052;45.944;13.624;2023-04-15T14:52:57;1.90;;;0.40;;
52041;SDS011;38052;45.944;13.624;2023-04-15T14:55:23;3.67;;;0.57;;
52041;SDS011;38052;45.944;13.624;2023-04-15T14:57:50;5.40;;;0.80;;
52041;SDS011;38052;45.944;13.624;2023-04-15T15:00:16;1.50;;;0.40;;
52041;SDS011;38052;45.944;13.624;2023-04-15T15:02:43;1.45;;;0.15;;